Time;durP1;ratioP1;P1;durP2;ratioP2;P2;SDS_P1;SDS_P2;PMS_P1;PMS_P2;Temp;Humidity;BMP_temperature;BMP_pressure;BME280_temperature;BME280_humidity;BME280_pressure;Samples;Min_cycle;Max_cycle;Signal;HPM_P1;HPM_P2
2024/01/17 00:02:03;;;;;;;10.10;9.80;;;-5.00;99.90;;;;;;6228827;23;20276;-80
2024/01/17 00:04:30;;;;;;;10.13;9.83;;;-5.00;99.90;;;;;;6228126;22;20249;-80
2024/01/17 00:06:58;;;;;;;9.67;9.37;;;-5.00;99.90;;;;;;6228542;23;20213;-79
2024/01/17 00:09:25;;;;;;;10.40;10.10;;;-5.00;99.90;;;;;;6234821;23;20195;-80
2024/01/17 00:11:52;;;;;;;10.27;9.97;;;-5.00;99.90;;;;;;6229431;23;20258;-80
2024/01/17 00:14:19;;;;;;;9.87;9.57;;;-5.10;99.90;;;;;;6242199;23;20178;-80
2024/01/17 00:16:46;;;;;;;10.03;9.73;;;-5.10;99.90;;;;;;6232153;23;20202;-79
2024/01/17 00:19:15;;;;;;;10.00;9.70;;;-5.10;99.90;;;;;;6232508;23;20197;-80
2024/01/17 00:21:43;;;;;;;10.17;9.87;;;-5.10;99.90;;;;;;6232630;23;20195;-80
2024/01/17 00:24:10;;;;;;;9.77;9.47;;;-5.10;99.90;;;;;;6230472;23;20209;-79
2024/01/17 00:26:37;;;;;;;9.87;9.57;;;-5.00;99.90;;;;;;6229323;22;20217;-80
2024/01/17 00:29:05;;;;;;;9.80;9.50;;;-5.00;99.90;;;;;;6228684;23;20197;-80
2024/01/17 00:31:32;;;;;;;9.73;9.43;;;-5.00;99.90;;;;;;6232692;23;20205;-79
2024/01/17 00:34:00;;;;;;;9.80;9.50;;;-5.00;99.90;;;;;;6230690;23;20233;-80
2024/01/17 00:36:28;;;;;;;10.03;9.73;;;-5.00;99.90;;;;;;6228672;22;20203;-80
2024/01/17 00:38:55;;;;;;;9.50;9.20;;;-5.00;99.90;;;;;;6227985;23;20198;-81
2024/01/17 00:41:23;;;;;;;9.77;9.47;;;-5.00;99.90;;;;;;6228773;23;20213;-80
2024/01/17 00:43:50;;;;;;;9.80;9.50;;;-5.00;99.90;;;;;;6228606;23;20201;-80
2024/01/17 00:46:18;;;;;;;9.90;9.60;;;-5.00;99.90;;;;;;6228019;22;20201;-80
2024/01/17 00:48:45;;;;;;;10.33;10.03;;;-5.10;99.90;;;;;;6227285;23;20209;-80
2024/01/17 00:51:23;;;;;;;10.07;9.77;;;-5.10;99.90;;;;;;6228402;23;20286;-80
2024/01/17 00:53:53;;;;;;;10.10;9.80;;;-5.10;99.90;;;;;;6228315;23;20229;-79
2024/01/17 00:56:21;;;;;;;10.27;9.97;;;-5.10;99.90;;;;;;6228751;22;20214;-79
2024/01/17 00:58:48;;;;;;;10.23;9.93;;;-5.20;99.90;;;;;;6229427;23;20337;-81
2024/01/17 01:01:15;;;;;;;10.07;9.77;;;-5.20;99.90;;;;;;6228406;23;20280;-81
2024/01/17 01:03:43;;;;;;;9.73;9.43;;;-5.20;99.90;;;;;;6228375;23;20198;-80
2024/01/17 01:06:10;;;;;;;10.07;9.77;;;-5.20;99.90;;;;;;6228397;22;20257;-81
2024/01/17 01:08:37;;;;;;;10.20;9.90;;;-5.20;99.90;;;;;;6228087;23;20201;-81
2024/01/17 01:11:06;;;;;;;10.30;10.00;;;-5.20;99.90;;;;;;6228597;23;20201;-81
2024/01/17 01:13:33;;;;;;;10.00;9.70;;;-5.20;99.90;;;;;;6228717;23;20213;-81
2024/01/17 01:16:00;;;;;;;9.97;9.67;;;-5.20;99.90;;;;;;6228856;22;20206;-81
2024/01/17 01:18:27;;;;;;;10.23;9.93;;;-5.10;99.90;;;;;;6228665;23;20229;-82
2024/01/17 01:20:55;;;;;;;10.20;9.90;;;-5.10;99.90;;;;;;6228068;23;20198;-79
2024/01/17 01:23:24;;;;;;;9.87;9.57;;;-5.10;99.90;;;;;;6228412;23;20204;-79
2024/01/17 01:25:51;;;;;;;10.10;9.80;;;-5.10;99.90;;;;;;6227678;22;20265;-79
2024/01/17 01:28:20;;;;;;;10.03;9.73;;;-5.10;99.90;;;;;;6228456;23;20205;-79
2024/01/17 01:30:47;;;;;;;10.43;10.13;;;-5.20;99.90;;;;;;6227550;23;20264;-78
2024/01/17 01:33:15;;;;;;;10.30;10.00;;;-5.30;99.90;;;;;;6228494;23;20201;-79
2024/01/17 01:35:42;;;;;;;10.33;10.03;;;-5.40;99.90;;;;;;6232689;22;20203;-79
2024/01/17 01:38:10;;;;;;;10.57;10.27;;;-5.40;99.90;;;;;;6234936;23;20197;-78
2024/01/17 01:40:38;;;;;;;10.40;10.10;;;-5.50;99.90;;;;;;6234118;23;20256;-78
2024/01/17 01:43:20;;;;;;;10.03;9.73;;;-5.50;99.90;;;;;;6234176;23;20209;-80
2024/01/17 01:46:13;;;;;;;10.50;10.20;;;-5.50;99.90;;;;;;6231569;22;20202;-79
2024/01/17 01:48:43;;;;;;;10.37;10.07;;;-5.50;99.90;;;;;;6232578;23;20200;-79
2024/01/17 01:51:11;;;;;;;10.80;10.50;;;-5.50;99.90;;;;;;6232494;23;20209;-80
2024/01/17 01:53:40;;;;;;;10.00;9.70;;;-5.60;99.90;;;;;;6230650;23;20202;-80
2024/01/17 01:56:09;;;;;;;10.37;10.07;;;-5.60;99.90;;;;;;6230206;22;20205;-79
2024/01/17 01:58:39;;;;;;;10.13;9.83;;;-5.60;99.90;;;;;;6230372;23;20204;-80
2024/01/17 02:01:07;;;;;;;10.07;9.77;;;-5.60;99.90;;;;;;6229912;23;20197;-79
2024/01/17 02:03:35;;;;;;;10.27;9.97;;;-5.60;99.90;;;;;;6228520;23;20204;-80
2024/01/17 02:06:03;;;;;;;10.17;9.87;;;-5.50;99.90;;;;;;6230819;22;20205;-79
2024/01/17 02:08:30;;;;;;;10.80;10.50;;;-5.50;99.90;;;;;;6242490;23;20197;-78
2024/01/17 02:10:59;;;;;;;10.60;10.30;;;-5.50;99.90;;;;;;6232916;23;20200;-79
2024/01/17 02:13:27;;;;;;;10.80;10.50;;;-5.40;99.90;;;;;;6233000;23;20194;-80
2024/01/17 02:15:56;;;;;;;10.80;10.50;;;-5.40;99.90;;;;;;6230121;22;20208;-80
2024/01/17 02:18:24;;;;;;;10.90;10.60;;;-5.40;99.90;;;;;;6230801;23;20198;-79
2024/01/17 02:20:51;;;;;;;10.17;9.87;;;-5.50;99.90;;;;;;6229400;23;20208;-80
2024/01/17 02:23:27;;;;;;;10.20;9.90;;;-5.40;99.90;;;;;;6229013;23;20197;-80
2024/01/17 02:25:57;;;;;;;10.30;10.00;;;-5.50;99.90;;;;;;6229187;22;20265;-80
2024/01/17 02:28:27;;;;;;;10.60;10.30;;;-5.50;99.90;;;;;;6228751;23;20292;-79
2024/01/17 02:30:54;;;;;;;10.70;10.40;;;-5.50;99.90;;;;;;6228197;23;20250;-79
2024/01/17 02:33:21;;;;;;;9.97;9.67;;;-5.50;99.90;;;;;;6229044;23;20284;-80
2024/01/17 02:35:49;;;;;;;10.27;9.97;;;-5.50;99.90;;;;;;6228311;22;20264;-79
2024/01/17 02:38:16;;;;;;;9.97;9.67;;;-5.50;99.90;;;;;;6228573;23;20224;-79
2024/01/17 02:40:44;;;;;;;10.60;10.30;;;-5.50;99.90;;;;;;6228697;23;20201;-80
2024/01/17 02:43:12;;;;;;;9.90;9.60;;;-5.50;99.90;;;;;;6229037;23;20206;-80
2024/01/17 02:45:40;;;;;;;10.33;10.03;;;-5.50;99.90;;;;;;6228843;22;20206;-79
2024/01/17 02:48:07;;;;;;;10.17;9.87;;;-5.50;99.90;;;;;;6228472;23;20228;-79
2024/01/17 02:50:35;;;;;;;10.17;9.87;;;-5.50;99.90;;;;;;6228202;23;20215;-80
2024/01/17 02:53:02;;;;;;;10.10;9.80;;;-5.50;99.90;;;;;;6228732;23;20205;-80
2024/01/17 02:55:29;;;;;;;10.00;9.70;;;-5.50;99.90;;;;;;6228624;22;20254;-80
2024/01/17 02:57:56;;;;;;;9.93;9.63;;;-5.50;99.90;;;;;;6229235;23;20264;-79
2024/01/17 03:00:25;;;;;;;9.77;9.47;;;-5.50;99.90;;;;;;6228465;23;20201;-80
2024/01/17 03:02:52;;;;;;;9.77;9.47;;;-5.40;99.90;;;;;;6228790;23;20197;-79
2024/01/17 03:05:19;;;;;;;10.07;9.77;;;-5.40;99.90;;;;;;6228662;22;20209;-80
2024/01/17 03:07:46;;;;;;;10.20;9.90;;;-5.40;99.90;;;;;;6228488;23;20288;-79
2024/01/17 03:10:14;;;;;;;10.30;10.00;;;-5.40;99.90;;;;;;6228269;23;20197;-80
2024/01/17 03:12:43;;;;;;;9.77;9.47;;;-5.40;99.90;;;;;;6229022;23;20669;-80
2024/01/17 03:15:10;;;;;;;10.10;9.80;;;-5.40;99.90;;;;;;6229196;22;20205;-79
2024/01/17 03:17:39;;;;;;;10.10;9.80;;;-5.40;99.90;;;;;;6228290;23;20195;-80
2024/01/17 03:20:10;;;;;;;10.03;9.73;;;-5.30;99.90;;;;;;6228445;23;20202;-79
2024/01/17 03:22:39;;;;;;;10.00;9.70;;;-5.30;99.90;;;;;;6228573;23;20221;-80
2024/01/17 03:25:08;;;;;;;10.27;9.97;;;-5.30;99.90;;;;;;6228500;22;20229;-80
2024/01/17 03:27:36;;;;;;;10.27;9.97;;;-5.30;99.90;;;;;;6228188;23;20208;-79
2024/01/17 03:30:03;;;;;;;9.97;9.67;;;-5.20;99.90;;;;;;6228026;23;20269;-80
2024/01/17 03:32:31;;;;;;;9.97;9.67;;;-5.20;99.90;;;;;;6228515;23;20892;-80
2024/01/17 03:35:00;;;;;;;9.87;9.57;;;-5.10;99.90;;;;;;6227931;22;20257;-80
2024/01/17 03:37:27;;;;;;;9.73;9.43;;;-5.10;99.90;;;;;;6228109;23;20334;-80
2024/01/17 03:39:54;;;;;;;10.40;10.10;;;-5.10;99.90;;;;;;6228455;23;20201;-80
2024/01/17 03:42:22;;;;;;;10.50;10.20;;;-5.00;99.90;;;;;;6228505;23;20195;-80
2024/01/17 03:44:49;;;;;;;10.07;9.77;;;-5.00;99.90;;;;;;6228478;22;20236;-79
2024/01/17 03:47:16;;;;;;;10.10;9.80;;;-5.00;99.90;;;;;;6228240;23;20202;-80
2024/01/17 03:49:43;;;;;;;10.13;9.83;;;-5.00;99.90;;;;;;6227670;23;20206;-80
2024/01/17 03:52:12;;;;;;;10.23;9.93;;;-5.00;99.90;;;;;;6229273;23;20209;-80
2024/01/17 03:54:39;;;;;;;9.97;9.67;;;-5.00;99.90;;;;;;6231655;22;20226;-80
2024/01/17 03:57:08;;;;;;;10.40;10.10;;;-5.00;99.90;;;;;;6244622;23;20253;-79
2024/01/17 03:59:35;;;;;;;10.27;9.97;;;-5.00;99.90;;;;;;6244976;23;20177;-80
2024/01/17 04:02:03;;;;;;;10.07;9.77;;;-4.90;99.90;;;;;;6244474;23;20206;-80
2024/01/17 04:04:30;;;;;;;9.50;9.20;;;-4.90;99.90;;;;;;6236277;22;20254;-80
2024/01/17 04:06:57;;;;;;;10.13;9.83;;;-4.80;99.90;;;;;;6232130;23;20207;-80
2024/01/17 04:09:26;;;;;;;9.70;9.40;;;-4.80;99.90;;;;;;6242193;23;20276;-80
2024/01/17 04:11:53;;;;;;;10.43;10.13;;;-4.80;99.90;;;;;;6235230;23;20202;-79
2024/01/17 04:14:20;;;;;;;10.10;9.80;;;-4.70;99.90;;;;;;6238377;23;20198;-80
2024/01/17 04:16:47;;;;;;;10.23;9.93;;;-4.60;99.90;;;;;;6236715;23;20203;-80
2024/01/17 04:19:15;;;;;;;9.90;9.60;;;-4.70;99.90;;;;;;6241115;22;20187;-79
2024/01/17 04:21:42;;;;;;;10.50;10.20;;;-4.70;99.90;;;;;;6249145;22;20191;-79
2024/01/17 04:24:09;;;;;;;10.30;10.00;;;-4.70;99.90;;;;;;6248983;22;20178;-79
2024/01/17 04:26:38;;;;;;;10.30;10.00;;;-4.60;99.90;;;;;;6242402;22;20198;-79
2024/01/17 04:29:05;;;;;;;10.03;9.73;;;-4.70;99.90;;;;;;6248125;22;20237;-78
2024/01/17 04:31:32;;;;;;;9.87;9.57;;;-4.70;99.90;;;;;;6250465;22;20195;-80
2024/01/17 04:34:01;;;;;;;10.40;10.10;;;-4.60;99.90;;;;;;6248774;22;20195;-79
2024/01/17 04:36:30;;;;;;;10.40;10.10;;;-4.60;99.90;;;;;;6249582;22;20190;-79
2024/01/17 04:38:57;;;;;;;9.47;9.17;;;-4.50;99.90;;;;;;6250559;22;20200;-79
2024/01/17 04:41:24;;;;;;;9.70;9.40;;;-4.50;99.90;;;;;;6250804;22;20182;-79
2024/01/17 04:43:53;;;;;;;9.43;9.13;;;-4.50;99.90;;;;;;6250766;22;20192;-79
2024/01/17 04:46:20;;;;;;;9.33;9.03;;;-4.40;99.90;;;;;;6250380;22;20226;-79
2024/01/17 04:48:47;;;;;;;9.23;8.93;;;-4.40;99.90;;;;;;6250210;22;20189;-79
2024/01/17 04:51:15;;;;;;;8.80;8.60;;;-4.40;99.90;;;;;;6250430;22;20171;-79
2024/01/17 04:53:42;;;;;;;9.27;8.97;;;-4.40;99.90;;;;;;6250973;22;20178;-79
2024/01/17 04:56:11;;;;;;;9.13;8.83;;;-4.40;99.90;;;;;;6249350;22;20217;-78
2024/01/17 04:58:38;;;;;;;8.90;8.70;;;-4.40;99.90;;;;;;6247198;22;20202;-80
2024/01/17 05:01:08;;;;;;;8.83;8.63;;;-4.30;99.90;;;;;;6229274;23;20257;-80
2024/01/17 05:03:35;;;;;;;8.97;8.77;;;-4.40;99.90;;;;;;6230067;23;20194;-80
2024/01/17 05:06:04;;;;;;;8.90;8.70;;;-4.40;99.90;;;;;;6231047;22;20269;-79
2024/01/17 05:08:31;;;;;;;9.10;8.80;;;-4.40;99.90;;;;;;6230323;23;20197;-80
2024/01/17 05:10:58;;;;;;;8.87;8.67;;;-4.40;99.90;;;;;;6229542;23;20259;-80
2024/01/17 05:13:25;;;;;;;8.93;8.70;;;-4.40;99.90;;;;;;6235178;23;20199;-80
2024/01/17 05:15:53;;;;;;;8.80;8.60;;;-4.30;99.90;;;;;;6229667;22;20201;-80
2024/01/17 05:18:21;;;;;;;8.63;8.43;;;-4.40;99.90;;;;;;6229524;23;20210;-80
2024/01/17 05:20:49;;;;;;;9.07;8.80;;;-4.30;99.90;;;;;;6229772;23;20278;-80
2024/01/17 05:23:16;;;;;;;8.80;8.60;;;-4.30;99.90;;;;;;6228523;23;20226;-80
2024/01/17 05:25:43;;;;;;;8.70;8.50;;;-4.30;99.90;;;;;;6228728;22;20205;-80
2024/01/17 05:28:10;;;;;;;9.30;9.00;;;-4.20;99.90;;;;;;6228735;23;20223;-80
2024/01/17 05:30:38;;;;;;;8.83;8.63;;;-4.20;99.90;;;;;;6228978;23;20191;-79
2024/01/17 05:33:05;;;;;;;8.70;8.50;;;-4.10;99.90;;;;;;6230474;23;20253;-80
2024/01/17 05:35:34;;;;;;;8.90;8.70;;;-4.10;99.90;;;;;;6229496;22;20230;-80
2024/01/17 05:38:01;;;;;;;8.70;8.50;;;-4.00;99.90;;;;;;6229428;23;20210;-80
2024/01/17 05:40:28;;;;;;;9.10;8.83;;;-4.00;99.90;;;;;;6230211;23;20227;-80
2024/01/17 05:42:56;;;;;;;8.93;8.73;;;-3.90;99.90;;;;;;6229545;23;20229;-80
2024/01/17 05:45:23;;;;;;;8.97;8.77;;;-3.90;99.90;;;;;;6230997;22;20206;-80
2024/01/17 05:47:51;;;;;;;9.10;8.80;;;-3.90;99.90;;;;;;6230749;23;20195;-80
2024/01/17 05:50:18;;;;;;;8.73;8.53;;;-3.80;99.90;;;;;;6230740;23;20203;-80
2024/01/17 05:52:48;;;;;;;9.40;9.10;;;-3.80;99.90;;;;;;6229559;23;20222;-80
2024/01/17 05:55:17;;;;;;;8.77;8.57;;;-3.70;99.90;;;;;;6224589;22;20212;-87
2024/01/17 05:58:00;;;;;;;8.80;8.60;;;-3.60;99.90;;;;;;6227597;23;20205;-87
2024/01/17 06:00:29;;;;;;;8.73;8.53;;;-3.60;99.90;;;;;;6226709;23;20193;-87
2024/01/17 06:03:15;;;;;;;8.90;8.70;;;-3.50;99.90;;;;;;6228282;23;20191;-88
2024/01/17 06:05:51;;;;;;;8.83;8.63;;;-3.50;99.90;;;;;;6227013;22;20214;-88
2024/01/17 06:08:24;;;;;;;8.60;8.40;;;-3.50;99.90;;;;;;6228840;23;20198;-88
2024/01/17 06:10:54;;;;;;;8.70;8.50;;;-3.50;99.90;;;;;;6228525;23;20191;-88
2024/01/17 06:13:35;;;;;;;8.80;8.60;;;-3.40;99.90;;;;;;6229269;23;20206;-88
2024/01/17 06:16:17;;;;;;;9.43;9.13;;;-3.40;99.90;;;;;;6228739;22;20230;-88
2024/01/17 06:18:54;;;;;;;9.10;8.80;;;-3.30;99.90;;;;;;6228714;23;20201;-87
2024/01/17 06:21:27;;;;;;;8.90;8.70;;;-3.30;99.90;;;;;;6229012;23;20187;-89
2024/01/17 06:24:10;;;;;;;9.40;9.10;;;-3.30;99.90;;;;;;6229103;23;20191;-89
2024/01/17 06:26:49;;;;;;;8.80;8.60;;;-3.20;99.90;;;;;;6228929;22;20209;-89
2024/01/17 06:29:22;;;;;;;8.37;8.17;;;-3.20;99.90;;;;;;6229072;23;20211;-89
2024/01/17 06:31:56;;;;;;;9.20;8.90;;;-3.20;99.90;;;;;;6249396;22;20194;-88
2024/01/17 06:34:26;;;;;;;9.03;8.73;;;-3.20;99.90;;;;;;6238723;22;20222;-89
2024/01/17 06:36:57;;;;;;;9.23;8.93;;;-3.10;99.90;;;;;;6230924;22;20198;-89
2024/01/17 06:39:33;;;;;;;9.43;9.13;;;-3.10;99.90;;;;;;6232223;23;21002;-88
2024/01/17 06:42:04;;;;;;;8.70;8.50;;;-3.00;99.90;;;;;;6231527;23;20199;-89
2024/01/17 06:45:04;;;;;;;9.37;9.07;;;-3.00;99.90;;;;;;6229524;23;20195;-89
2024/01/17 06:47:41;;;;;;;8.80;8.60;;;-2.90;99.90;;;;;;6229394;23;20246;-89
2024/01/17 06:50:14;;;;;;;8.93;8.73;;;-3.00;99.90;;;;;;6231476;23;20223;-88
2024/01/17 06:55:43;;;;;;;9.30;9.00;;;-3.00;99.90;;;;;;6227048;22;20741;-89
2024/01/17 06:58:17;;;;;;;9.27;8.97;;;-3.00;99.90;;;;;;6231584;23;20200;-88
2024/01/17 07:01:06;;;;;;;9.33;9.03;;;-3.10;99.90;;;;;;6231339;23;20285;-89
2024/01/17 07:03:48;;;;;;;9.33;9.03;;;-3.00;99.90;;;;;;6230621;23;20195;-88
2024/01/17 07:06:32;;;;;;;9.70;9.40;;;-3.00;99.90;;;;;;6231314;22;20202;-88
2024/01/17 07:09:23;;;;;;;9.40;9.10;;;-3.00;99.90;;;;;;6229007;23;20236;-89
2024/01/17 07:11:56;;;;;;;8.97;8.67;;;-3.00;99.90;;;;;;6229594;23;20230;-88
2024/01/17 07:14:39;;;;;;;8.50;8.30;;;-2.90;99.90;;;;;;6231691;23;20191;-89
2024/01/17 07:17:15;;;;;;;9.17;8.87;;;-2.90;99.90;;;;;;6234500;22;20213;-89
2024/01/17 07:19:52;;;;;;;9.13;8.83;;;-2.90;99.90;;;;;;6233489;23;20196;-89
2024/01/17 07:22:32;;;;;;;9.10;8.80;;;-2.80;99.90;;;;;;6229891;23;20226;-88
2024/01/17 07:25:17;;;;;;;9.37;9.07;;;-2.80;99.90;;;;;;6241347;22;20217;-89
2024/01/17 07:28:10;;;;;;;9.50;9.20;;;-2.70;99.90;;;;;;6229787;23;20194;-89
2024/01/17 07:30:44;;;;;;;9.70;9.40;;;-2.70;99.90;;;;;;6192273;23;20206;-89
2024/01/17 07:33:19;;;;;;;9.97;9.67;;;-2.60;99.90;;;;;;6228851;23;20195;-89
2024/01/17 07:35:52;;;;;;;9.80;9.50;;;-2.60;99.90;;;;;;6228836;22;20202;-89
2024/01/17 07:38:22;;;;;;;9.80;9.50;;;-2.50;99.90;;;;;;6230787;23;20199;-89
2024/01/17 07:40:54;;;;;;;10.47;10.17;;;-2.40;99.90;;;;;;6246565;22;20185;-88
2024/01/17 07:43:44;;;;;;;9.90;9.60;;;-2.30;99.90;;;;;;6241266;23;20199;-89
2024/01/17 07:46:20;;;;;;;9.87;9.57;;;-2.30;99.90;;;;;;6230134;22;20274;-89
2024/01/17 07:48:50;;;;;;;10.10;9.80;;;-2.20;99.90;;;;;;6229815;23;20199;-89
2024/01/17 07:51:20;;;;;;;9.67;9.37;;;-2.20;99.90;;;;;;6229836;23;20245;-89
2024/01/17 07:53:53;;;;;;;9.87;9.57;;;-2.10;99.90;;;;;;6229379;23;20203;-89
2024/01/17 07:56:38;;;;;;;9.77;9.47;;;-2.00;99.90;;;;;;6228472;22;20202;-89
2024/01/17 07:59:18;;;;;;;10.10;9.80;;;-1.90;99.90;;;;;;6230245;23;20250;-89
2024/01/17 08:01:52;;;;;;;9.93;9.63;;;-1.90;99.90;;;;;;6228529;23;20202;-89
2024/01/17 08:04:20;;;;;;;10.03;9.73;;;-1.90;99.90;;;;;;6229146;23;20205;-88
2024/01/17 08:06:53;;;;;;;10.03;9.73;;;-1.90;99.90;;;;;;6228121;22;20258;-89
2024/01/17 08:09:32;;;;;;;10.13;9.83;;;-1.90;99.90;;;;;;6229257;23;20214;-89
2024/01/17 08:12:03;;;;;;;9.87;9.57;;;-1.90;99.90;;;;;;6228336;23;20283;-89
2024/01/17 08:14:35;;;;;;;9.83;9.53;;;-1.80;99.90;;;;;;6228236;23;20243;-88
2024/01/17 08:17:03;;;;;;;10.17;9.87;;;-1.80;99.90;;;;;;6228502;22;20283;-89
2024/01/17 08:19:33;;;;;;;9.37;9.07;;;-1.70;99.90;;;;;;6227904;23;20229;-89
2024/01/17 08:22:04;;;;;;;10.10;9.80;;;-1.70;99.90;;;;;;6227705;23;20227;-88
2024/01/17 08:24:33;;;;;;;10.10;9.80;;;-1.70;99.90;;;;;;6227674;23;20256;-89
2024/01/17 08:27:02;;;;;;;9.53;9.23;;;-1.70;99.90;;;;;;6227878;22;20245;-89
2024/01/17 08:29:33;;;;;;;9.37;9.07;;;-1.70;99.90;;;;;;6227918;23;20200;-89
2024/01/17 08:32:02;;;;;;;9.77;9.47;;;-1.60;99.90;;;;;;6228551;23;20183;-89
2024/01/17 08:34:33;;;;;;;9.23;8.93;;;-1.60;99.90;;;;;;6227932;23;20199;-89
2024/01/17 08:37:05;;;;;;;10.03;9.73;;;-1.50;99.90;;;;;;6228515;22;20212;-89
2024/01/17 08:39:33;;;;;;;10.03;9.73;;;-1.40;99.90;;;;;;6227836;23;20281;-89
2024/01/17 08:42:03;;;;;;;9.73;9.43;;;-1.40;99.90;;;;;;6227997;23;20278;-89
2024/01/17 08:44:31;;;;;;;9.83;9.53;;;-1.40;99.90;;;;;;6228019;23;20235;-88
2024/01/17 08:47:06;;;;;;;9.83;9.53;;;-1.30;99.90;;;;;;6228112;22;20205;-88
2024/01/17 08:49:40;;;;;;;9.63;9.33;;;-1.30;99.90;;;;;;6228879;23;20194;-88
2024/01/17 08:52:18;;;;;;;10.00;9.70;;;-1.20;99.90;;;;;;6230213;23;20223;-88
2024/01/17 08:54:53;;;;;;;10.00;9.70;;;-1.20;99.90;;;;;;6228529;23;20201;-87
2024/01/17 08:57:26;;;;;;;10.47;10.17;;;-1.10;99.90;;;;;;6228078;22;20203;-88
2024/01/17 08:59:54;;;;;;;10.03;9.73;;;-1.00;99.90;;;;;;6228630;23;20215;-87
2024/01/17 09:02:30;;;;;;;9.90;9.60;;;-1.00;99.90;;;;;;6228794;23;20269;-87
2024/01/17 09:05:02;;;;;;;9.63;9.33;;;-0.90;99.90;;;;;;6229111;22;20198;-87
2024/01/17 09:07:31;;;;;;;9.70;9.40;;;-0.90;99.90;;;;;;6228827;23;20189;-87
2024/01/17 09:10:00;;;;;;;9.60;9.30;;;-0.90;99.90;;;;;;6230033;23;20210;-87
2024/01/17 09:12:30;;;;;;;9.87;9.57;;;-0.90;99.90;;;;;;6229548;23;20221;-87
2024/01/17 09:14:59;;;;;;;10.23;9.93;;;-0.80;99.90;;;;;;6229280;22;20213;-87
2024/01/17 09:17:31;;;;;;;9.60;9.30;;;-0.80;99.90;;;;;;6232492;23;20198;-87
2024/01/17 09:20:04;;;;;;;9.70;9.40;;;-0.80;99.90;;;;;;6232863;23;20202;-89
2024/01/17 09:22:32;;;;;;;9.60;9.30;;;-0.70;99.90;;;;;;6233697;23;20233;-87
2024/01/17 09:25:02;;;;;;;9.60;9.30;;;-0.70;99.90;;;;;;6230147;22;20198;-88
2024/01/17 09:27:30;;;;;;;9.17;8.87;;;-0.70;99.90;;;;;;6234666;22;20182;-85
2024/01/17 09:29:57;;;;;;;10.10;9.80;;;-0.60;99.90;;;;;;6236107;23;20264;-87
2024/01/17 09:32:25;;;;;;;9.50;9.20;;;-0.60;99.90;;;;;;6229519;23;20286;-87
2024/01/17 09:34:56;;;;;;;9.60;9.30;;;-0.50;99.90;;;;;;6229352;23;20194;-87
2024/01/17 09:37:23;;;;;;;9.77;9.47;;;-0.50;99.90;;;;;;6239085;23;20212;-86
2024/01/17 09:39:51;;;;;;;9.67;9.37;;;-0.50;99.90;;;;;;6237404;23;20249;-86
2024/01/17 09:42:20;;;;;;;9.70;9.40;;;-0.40;99.90;;;;;;6237214;23;20273;-86
2024/01/17 09:44:48;;;;;;;10.10;9.80;;;-0.40;99.90;;;;;;6234625;23;20191;-87
2024/01/17 09:47:16;;;;;;;9.67;9.37;;;-0.30;99.90;;;;;;6233011;22;20230;-87
2024/01/17 09:50:08;;;;;;;9.70;9.40;;;-0.20;99.90;;;;;;6235316;22;20215;-85
2024/01/17 09:52:43;;;;;;;9.30;9.00;;;-0.20;99.90;;;;;;6242107;22;20198;-86
2024/01/17 09:55:20;;;;;;;9.30;9.00;;;-0.20;99.90;;;;;;6246883;22;20167;-86
2024/01/17 09:57:53;;;;;;;9.30;9.00;;;-0.10;99.90;;;;;;6220451;23;20218;-85
2024/01/17 10:00:30;;;;;;;9.27;8.97;;;-0.10;99.90;;;;;;6245121;23;20179;-86
2024/01/17 10:02:58;;;;;;;9.20;8.90;;;0.00;99.90;;;;;;6240976;23;20190;-87
2024/01/17 10:05:30;;;;;;;9.17;8.87;;;0.10;99.90;;;;;;6232790;22;20186;-87
2024/01/17 10:08:01;;;;;;;9.23;8.93;;;0.10;99.90;;;;;;6234315;23;20196;-87
2024/01/17 10:10:28;;;;;;;9.30;9.00;;;0.10;99.90;;;;;;6233353;23;20209;-86
2024/01/17 10:12:56;;;;;;;8.87;8.60;;;0.20;99.90;;;;;;6233504;23;20206;-87
2024/01/17 10:15:24;;;;;;;9.07;8.77;;;0.30;99.90;;;;;;6233969;22;20214;-87
2024/01/17 10:17:51;;;;;;;9.03;8.73;;;0.30;99.90;;;;;;6234727;23;20214;-87
2024/01/17 10:20:19;;;;;;;9.47;9.17;;;0.30;99.90;;;;;;6234688;23;20191;-86
2024/01/17 10:22:48;;;;;;;9.33;9.03;;;0.40;99.90;;;;;;6232677;23;20195;-86
2024/01/17 10:25:17;;;;;;;9.50;9.20;;;0.40;99.90;;;;;;6235023;22;20183;-86
2024/01/17 10:27:48;;;;;;;9.00;8.70;;;0.50;99.90;;;;;;6234365;23;20219;-85
2024/01/17 10:30:16;;;;;;;9.00;8.70;;;0.50;99.90;;;;;;6234980;23;20195;-86
2024/01/17 10:32:44;;;;;;;9.60;9.30;;;0.50;99.90;;;;;;6234689;23;20191;-86
2024/01/17 10:35:19;;;;;;;9.60;9.30;;;0.60;99.90;;;;;;6233907;22;20430;-85
2024/01/17 10:37:48;;;;;;;9.47;9.17;;;0.60;99.90;;;;;;6233876;23;20226;-85
2024/01/17 10:40:15;;;;;;;9.60;9.30;;;0.60;99.90;;;;;;6234520;23;20221;-86
2024/01/17 10:42:43;;;;;;;9.30;9.00;;;0.70;99.90;;;;;;6234153;23;20198;-85
2024/01/17 10:45:21;;;;;;;9.40;9.10;;;0.70;99.90;;;;;;6235936;22;20254;-85
2024/01/17 10:47:48;;;;;;;9.17;8.87;;;0.80;99.90;;;;;;6235954;23;20245;-85
2024/01/17 10:50:17;;;;;;;9.50;9.20;;;0.80;99.90;;;;;;6235504;23;20210;-86
2024/01/17 10:52:50;;;;;;;9.10;8.80;;;0.80;99.90;;;;;;6235587;22;20186;-86
2024/01/17 10:55:22;;;;;;;10.00;9.70;;;0.90;99.90;;;;;;6235474;22;20203;-86
2024/01/17 10:57:52;;;;;;;9.33;9.03;;;0.90;99.90;;;;;;6235446;23;20202;-87
2024/01/17 11:00:26;;;;;;;9.37;9.07;;;1.00;99.90;;;;;;6236216;23;20195;-86
2024/01/17 11:02:53;;;;;;;9.57;9.27;;;1.10;99.90;;;;;;6234433;23;20198;-85
2024/01/17 11:05:22;;;;;;;9.67;9.37;;;1.20;99.90;;;;;;6236784;22;20195;-85
2024/01/17 11:07:52;;;;;;;9.30;9.00;;;1.20;99.90;;;;;;6238001;23;20226;-86
2024/01/17 11:10:20;;;;;;;9.43;9.13;;;1.30;99.90;;;;;;6238531;23;20194;-86
2024/01/17 11:12:48;;;;;;;9.40;9.10;;;1.30;99.90;;;;;;6241343;23;20202;-85
2024/01/17 11:15:17;;;;;;;9.17;8.87;;;1.40;99.90;;;;;;6238998;22;20187;-85
2024/01/17 11:17:46;;;;;;;9.30;9.00;;;1.40;99.90;;;;;;6236332;23;20207;-85
2024/01/17 11:20:16;;;;;;;9.50;9.20;;;1.50;99.90;;;;;;6235478;23;20195;-85
2024/01/17 11:22:43;;;;;;;9.30;9.00;;;1.60;99.90;;;;;;6234243;23;20226;-86
2024/01/17 11:25:23;;;;;;;9.40;9.10;;;1.70;99.90;;;;;;6233608;22;20203;-86
2024/01/17 11:28:04;;;;;;;9.60;9.30;;;1.70;99.90;;;;;;6236208;23;20218;-86
2024/01/17 11:30:57;;;;;;;9.50;9.20;;;1.90;99.90;;;;;;6236133;23;20202;-85
2024/01/17 11:33:26;;;;;;;9.57;9.27;;;2.00;99.90;;;;;;6240073;23;20198;-85
2024/01/17 11:35:54;;;;;;;9.90;9.60;;;2.10;99.90;;;;;;6229043;22;20203;-86
2024/01/17 11:38:34;;;;;;;10.10;9.80;;;2.10;99.90;;;;;;6229058;23;20219;-86
2024/01/17 11:41:09;;;;;;;9.80;9.50;;;2.20;99.90;;;;;;6230216;23;20203;-86
2024/01/17 11:43:41;;;;;;;10.00;9.70;;;2.20;99.90;;;;;;6230983;23;20190;-86
2024/01/17 11:46:10;;;;;;;9.93;9.63;;;2.20;99.90;;;;;;6231912;22;20214;-86
2024/01/17 11:48:39;;;;;;;10.07;9.77;;;2.20;99.90;;;;;;6232751;23;20217;-86
2024/01/17 11:51:21;;;;;;;10.10;9.80;;;2.20;99.90;;;;;;6232295;23;20209;-86
2024/01/17 11:53:50;;;;;;;9.80;9.50;;;2.20;99.90;;;;;;6232937;23;20225;-86
2024/01/17 11:56:21;;;;;;;10.00;9.70;;;2.20;99.90;;;;;;6223081;22;20225;-83
2024/01/17 11:58:52;;;;;;;9.93;9.63;;;2.30;99.90;;;;;;6230094;23;20283;-84
2024/01/17 12:01:24;;;;;;;9.80;9.50;;;2.40;99.90;;;;;;6229097;23;20226;-84
2024/01/17 12:03:52;;;;;;;9.40;9.10;;;2.50;99.90;;;;;;6229168;23;20187;-83
2024/01/17 12:06:21;;;;;;;9.43;9.13;;;2.50;99.90;;;;;;6229437;23;20218;-83
2024/01/17 12:08:52;;;;;;;9.80;9.50;;;2.50;99.90;;;;;;6228219;23;20207;-84
2024/01/17 12:11:21;;;;;;;9.67;9.37;;;2.50;99.90;;;;;;6228228;23;20226;-83
2024/01/17 12:13:52;;;;;;;9.77;9.47;;;2.40;99.90;;;;;;6228683;23;20201;-82
2024/01/17 12:16:22;;;;;;;9.80;9.50;;;2.40;99.90;;;;;;6228476;23;20209;-83
2024/01/17 12:18:58;;;;;;;9.70;9.40;;;2.40;99.90;;;;;;6228261;23;20199;-84
2024/01/17 12:21:25;;;;;;;9.57;9.27;;;2.40;99.90;;;;;;6227113;23;20214;-84
2024/01/17 12:23:52;;;;;;;9.80;9.50;;;2.30;99.90;;;;;;6229137;23;20284;-84
2024/01/17 12:26:21;;;;;;;9.87;9.57;;;2.30;99.90;;;;;;6228551;22;20230;-83
2024/01/17 12:28:48;;;;;;;9.70;9.40;;;2.30;99.90;;;;;;6227767;23;20242;-84
2024/01/17 12:31:16;;;;;;;9.87;9.57;;;2.30;99.90;;;;;;6227668;23;20222;-83
2024/01/17 12:33:48;;;;;;;9.77;9.47;;;2.30;99.90;;;;;;6227544;23;20195;-84
2024/01/17 12:36:15;;;;;;;9.80;9.50;;;2.20;99.90;;;;;;6227335;22;20341;-84
2024/01/17 12:38:43;;;;;;;9.77;9.47;;;2.20;99.90;;;;;;6226880;23;20199;-83
2024/01/17 12:41:10;;;;;;;9.53;9.23;;;2.20;99.90;;;;;;6230625;22;20186;-83
2024/01/17 12:43:40;;;;;;;9.77;9.47;;;2.20;99.90;;;;;;6246213;22;20183;-83
2024/01/17 12:46:07;;;;;;;9.90;9.60;;;2.20;99.90;;;;;;6246938;22;20258;-83
2024/01/17 12:48:35;;;;;;;9.87;9.57;;;2.20;99.90;;;;;;6248891;22;20215;-84
2024/01/17 12:51:06;;;;;;;9.53;9.23;;;2.10;99.90;;;;;;6249040;22;20214;-84
2024/01/17 12:53:34;;;;;;;9.73;9.43;;;2.20;99.90;;;;;;6248838;22;20206;-84
2024/01/17 12:56:02;;;;;;;9.63;9.33;;;2.20;99.90;;;;;;6173798;22;1735400;-84
2024/01/17 12:58:31;;;;;;;10.00;9.70;;;2.20;99.90;;;;;;6250623;22;20234;-84
2024/01/17 13:01:02;;;;;;;9.97;9.67;;;2.20;99.90;;;;;;6249718;22;20175;-83
2024/01/17 13:03:30;;;;;;;9.70;9.40;;;2.20;99.90;;;;;;6250303;22;20182;-84
2024/01/17 13:06:01;;;;;;;9.57;9.27;;;2.10;99.90;;;;;;6250333;22;20213;-84